Time;durP1;ratioP1;P1;durP2;ratioP2;P2;SDS_P1;SDS_P2;PMS_P1;PMS_P2;Temp;Humidity;BMP_temperature;BMP_pressure;BME280_temperature;BME280_humidity;BME280_pressure;Samples;Min_cycle;Max_cycle;Signal;HPM_P1;HPM_P2
2024/04/25 00:00:53;;;;;;;0.20;0.10;;;;;;;;;;5404309;26;19995;-80
2024/04/25 00:03:19;;;;;;;0.20;0.10;;;;;;;;;;5414588;26;20013;-82
2024/04/25 00:05:45;;;;;;;0.20;0.10;;;;;;;;;;5437424;26;20438;-82
2024/04/25 00:08:11;;;;;;;0.20;0.10;;;;;;;;;;5438192;26;20014;-81
2024/04/25 00:10:40;;;;;;;0.20;0.10;;;;;;;;;;5463123;26;20018;-82
2024/04/25 00:13:06;;;;;;;0.20;0.10;;;;;;;;;;5441479;26;19999;-81
2024/04/25 00:15:32;;;;;;;0.20;0.10;;;;;;;;;;5438099;26;20465;-81
2024/04/25 00:17:59;;;;;;;0.20;0.10;;;;;;;;;;5463484;26;19999;-81
2024/04/25 00:20:26;;;;;;;0.20;0.10;;;;;;;;;;5436399;26;20011;-82
2024/04/25 00:22:52;;;;;;;0.20;0.00;;;;;;;;;;5439234;26;20010;-82
2024/04/25 00:25:38;;;;;;;0.20;0.10;;;;;;;;;;5403285;26;20352;-82
2024/04/25 00:28:04;;;;;;;0.20;0.10;;;;;;;;;;5413249;26;20076;-82
2024/04/25 00:30:30;;;;;;;0.20;0.10;;;;;;;;;;5429127;26;20018;-83
2024/04/25 00:32:58;;;;;;;0.20;0.00;;;;;;;;;;5444632;26;20332;-82
2024/04/25 00:35:24;;;;;;;0.20;0.10;;;;;;;;;;5440110;26;20016;-82
2024/04/25 00:37:50;;;;;;;0.20;0.10;;;;;;;;;;5443145;26;20014;-82
2024/04/25 00:40:16;;;;;;;0.20;0.10;;;;;;;;;;5412198;26;20010;-81
2024/04/25 00:42:43;;;;;;;0.20;0.00;;;;;;;;;;5442217;26;20009;-81
2024/04/25 00:45:09;;;;;;;0.20;0.10;;;;;;;;;;5436682;26;20104;-83
2024/04/25 00:47:56;;;;;;;0.20;0.10;;;;;;;;;;5412449;26;20275;-82
2024/04/25 00:50:23;;;;;;;0.20;0.10;;;;;;;;;;5404209;26;19999;-80
2024/04/25 00:52:50;;;;;;;0.20;0.10;;;;;;;;;;5438787;26;20003;-81
2024/04/25 00:55:16;;;;;;;0.20;0.10;;;;;;;;;;5440780;26;20351;-82
2024/04/25 00:57:43;;;;;;;0.20;0.10;;;;;;;;;;5445412;26;20417;-82
2024/04/25 01:00:11;;;;;;;0.20;0.00;;;;;;;;;;5435720;26;19995;-83
2024/04/25 01:02:39;;;;;;;0.20;0.00;;;;;;;;;;5442056;26;20083;-81
2024/04/25 01:05:06;;;;;;;0.20;0.03;;;;;;;;;;5409289;26;19995;-81
2024/04/25 01:07:32;;;;;;;0.20;0.10;;;;;;;;;;5411935;26;21965;-81
2024/04/25 01:09:58;;;;;;;0.20;0.10;;;;;;;;;;5439420;26;20002;-82
2024/04/25 01:12:25;;;;;;;0.20;0.00;;;;;;;;;;5438043;26;20375;-83
2024/04/25 01:14:51;;;;;;;0.20;0.10;;;;;;;;;;5435744;26;19999;-82
2024/04/25 01:17:18;;;;;;;0.20;0.10;;;;;;;;;;5436763;26;20060;-81
2024/04/25 01:19:45;;;;;;;0.20;0.10;;;;;;;;;;5438104;26;20017;-82
2024/04/25 01:22:11;;;;;;;0.20;0.10;;;;;;;;;;5401988;26;20014;-83
2024/04/25 01:24:37;;;;;;;0.20;0.10;;;;;;;;;;5404733;26;20021;-81
2024/04/25 01:27:04;;;;;;;0.20;0.10;;;;;;;;;;5441076;26;20625;-80
2024/04/25 01:29:31;;;;;;;0.20;0.10;;;;;;;;;;5408220;26;20021;-79
2024/04/25 01:31:58;;;;;;;0.20;0.10;;;;;;;;;;5445413;26;19999;-81
2024/04/25 01:34:27;;;;;;;0.20;0.10;;;;;;;;;;5437276;26;20090;-82
2024/04/25 01:36:53;;;;;;;0.30;0.30;;;;;;;;;;5430646;26;20052;-80
2024/04/25 01:39:19;;;;;;;0.20;0.10;;;;;;;;;;5433250;26;20125;-81
2024/04/25 01:41:45;;;;;;;0.20;0.10;;;;;;;;;;5441925;26;19995;-81
2024/04/25 01:44:11;;;;;;;0.20;0.10;;;;;;;;;;5437843;26;20326;-81
2024/04/25 01:46:38;;;;;;;0.20;0.10;;;;;;;;;;5407869;26;22447;-80
2024/04/25 01:49:04;;;;;;;0.20;0.10;;;;;;;;;;5409289;26;20082;-81
2024/04/25 01:51:33;;;;;;;0.20;0.10;;;;;;;;;;5435955;26;20469;-82
2024/04/25 01:53:59;;;;;;;0.20;0.10;;;;;;;;;;5434635;26;19999;-81
2024/04/25 01:56:25;;;;;;;0.20;0.10;;;;;;;;;;5432096;26;20443;-81
2024/04/25 01:58:52;;;;;;;0.20;0.10;;;;;;;;;;5451217;26;20022;-81
2024/04/25 02:01:19;;;;;;;0.20;0.10;;;;;;;;;;5406386;26;20010;-81
2024/04/25 02:03:46;;;;;;;0.20;0.10;;;;;;;;;;5402556;26;19995;-81
2024/04/25 02:06:12;;;;;;;0.20;0.10;;;;;;;;;;5433624;26;21557;-81
2024/04/25 02:08:38;;;;;;;0.20;0.10;;;;;;;;;;5434195;26;20056;-81
2024/04/25 02:11:24;;;;;;;0.20;0.03;;;;;;;;;;5407426;26;20490;-80
2024/04/25 02:13:50;;;;;;;0.20;0.10;;;;;;;;;;5437705;26;20484;-80
2024/04/25 02:16:16;;;;;;;0.20;0.10;;;;;;;;;;5429285;26;20413;-81
2024/04/25 02:18:42;;;;;;;0.20;0.10;;;;;;;;;;5404078;26;20079;-81
2024/04/25 02:26:42;;;;;;;0.20;0.10;;;;;;;;;;5434183;26;20004;-81
2024/04/25 02:29:08;;;;;;;0.20;0.03;;;;;;;;;;5437954;26;20007;-81
2024/04/25 02:31:37;;;;;;;0.20;0.10;;;;;;;;;;5403044;26;20068;-80
2024/04/25 02:34:03;;;;;;;0.20;0.05;;;;;;;;;;5432409;26;20708;-80
2024/04/25 02:36:29;;;;;;;0.20;0.10;;;;;;;;;;5409189;26;20017;-81
2024/04/25 02:39:15;;;;;;;0.20;0.10;;;;;;;;;;5378343;26;19999;-81
2024/04/25 02:41:41;;;;;;;0.20;0.10;;;;;;;;;;5400477;26;20017;-82
2024/04/25 02:44:07;;;;;;;0.20;0.10;;;;;;;;;;5434337;26;20021;-80
2024/04/25 02:46:33;;;;;;;0.20;0.10;;;;;;;;;;5394980;26;19996;-81
2024/04/25 02:48:59;;;;;;;0.20;0.10;;;;;;;;;;5437494;26;20007;-82
2024/04/25 02:51:25;;;;;;;0.20;0.10;;;;;;;;;;5407845;26;20010;-81
2024/04/25 02:53:52;;;;;;;0.20;0.10;;;;;;;;;;5435349;26;20007;-82
2024/04/25 02:56:18;;;;;;;0.20;0.10;;;;;;;;;;5398817;26;20010;-82
2024/04/25 02:58:44;;;;;;;0.20;0.10;;;;;;;;;;5433825;26;20007;-81
2024/04/25 03:01:10;;;;;;;0.20;0.05;;;;;;;;;;5436688;26;20052;-82
2024/04/25 03:03:36;;;;;;;0.20;0.10;;;;;;;;;;5437037;26;20030;-82
2024/04/25 03:06:22;;;;;;;0.20;0.10;;;;;;;;;;5407972;26;20026;-81
2024/04/25 03:08:48;;;;;;;0.20;0.10;;;;;;;;;;5437596;26;19995;-82
2024/04/25 03:11:14;;;;;;;0.20;0.10;;;;;;;;;;5435235;26;20079;-81
2024/04/25 03:14:00;;;;;;;0.20;0.10;;;;;;;;;;5457923;26;20018;-81
2024/04/25 03:16:26;;;;;;;0.20;0.10;;;;;;;;;;5408492;26;20003;-81
2024/04/25 03:18:52;;;;;;;0.20;0.10;;;;;;;;;;5442861;26;20038;-81
2024/04/25 03:21:19;;;;;;;0.20;0.00;;;;;;;;;;5442175;26;20058;-81
2024/04/25 03:23:45;;;;;;;0.20;0.10;;;;;;;;;;5432412;26;20481;-81
2024/04/25 03:26:11;;;;;;;0.20;0.03;;;;;;;;;;5403944;26;20443;-81
2024/04/25 03:28:58;;;;;;;0.20;0.10;;;;;;;;;;5408688;26;20003;-82
2024/04/25 03:31:24;;;;;;;0.20;0.10;;;;;;;;;;5436408;26;20631;-81
2024/04/25 03:33:50;;;;;;;0.20;0.10;;;;;;;;;;5429552;26;20022;-80
2024/04/25 03:36:16;;;;;;;0.20;0.10;;;;;;;;;;5432218;26;20451;-81
2024/04/25 03:38:42;;;;;;;0.20;0.10;;;;;;;;;;5405959;26;19996;-80
2024/04/25 03:41:13;;;;;;;0.20;0.10;;;;;;;;;;5435916;26;20007;-81
2024/04/25 03:43:39;;;;;;;0.20;0.10;;;;;;;;;;5407745;26;20017;-81
2024/04/25 03:46:15;;;;;;;0.20;0.10;;;;;;;;;;5407277;26;20006;-80
2024/04/25 03:48:42;;;;;;;0.20;0.10;;;;;;;;;;5407984;26;20007;-82
2024/04/25 03:51:28;;;;;;;0.20;0.10;;;;;;;;;;5441001;26;20002;-81
2024/04/25 03:53:54;;;;;;;4.47;0.45;;;;;;;;;;5442533;26;19998;-81
2024/04/25 03:56:21;;;;;;;0.20;0.10;;;;;;;;;;5432335;26;20015;-80
2024/04/25 03:58:47;;;;;;;0.20;0.10;;;;;;;;;;5429006;26;20027;-81
2024/04/25 04:01:14;;;;;;;0.20;0.10;;;;;;;;;;5435562;26;20480;-80
2024/04/25 04:03:40;;;;;;;0.20;0.10;;;;;;;;;;5435925;26;20017;-81
2024/04/25 04:06:26;;;;;;;0.20;0.10;;;;;;;;;;5393396;26;20488;-81
2024/04/25 04:08:52;;;;;;;0.20;0.00;;;;;;;;;;5438471;26;19999;-80
2024/04/25 04:11:39;;;;;;;0.20;0.10;;;;;;;;;;5408486;26;20010;-81
2024/04/25 04:14:05;;;;;;;0.20;0.10;;;;;;;;;;5438904;26;20019;-81
2024/04/25 04:16:32;;;;;;;0.20;0.00;;;;;;;;;;5440111;26;20009;-81
2024/04/25 04:19:18;;;;;;;0.40;0.32;;;;;;;;;;5390855;26;20089;-80
2024/04/25 04:21:45;;;;;;;0.20;0.00;;;;;;;;;;5403691;26;20002;-80
2024/04/25 04:24:14;;;;;;;0.20;0.10;;;;;;;;;;5443923;26;19998;-81
2024/04/25 04:26:40;;;;;;;0.20;0.10;;;;;;;;;;5436794;26;20007;-81
2024/04/25 04:29:06;;;;;;;0.20;0.10;;;;;;;;;;5441671;26;20032;-81
2024/04/25 04:31:32;;;;;;;0.20;0.10;;;;;;;;;;5414328;26;20555;-81
2024/04/25 04:33:58;;;;;;;0.20;0.00;;;;;;;;;;5415244;26;20009;-81
2024/04/25 04:36:24;;;;;;;0.90;0.40;;;;;;;;;;5416520;26;20006;-81
2024/04/25 04:38:50;;;;;;;0.20;0.08;;;;;;;;;;5411967;26;19998;-80
2024/04/25 04:41:16;;;;;;;0.20;0.00;;;;;;;;;;5428878;26;20013;-81
2024/04/25 04:43:43;;;;;;;0.20;0.10;;;;;;;;;;5394819;26;20017;-81
2024/04/25 04:46:09;;;;;;;0.20;0.10;;;;;;;;;;5426525;26;20137;-80
2024/04/25 04:48:35;;;;;;;0.20;0.03;;;;;;;;;;5393574;26;20003;-80
2024/04/25 04:51:01;;;;;;;0.20;0.10;;;;;;;;;;5425080;26;20003;-80
2024/04/25 04:53:27;;;;;;;0.20;0.10;;;;;;;;;;5427083;26;20006;-80
2024/04/25 04:55:53;;;;;;;0.20;0.10;;;;;;;;;;5383480;26;19995;-80
2024/04/25 04:58:20;;;;;;;0.20;0.10;;;;;;;;;;5426642;26;20018;-80
2024/04/25 05:00:46;;;;;;;0.20;0.10;;;;;;;;;;5395374;26;20006;-80
2024/04/25 05:03:14;;;;;;;0.20;0.10;;;;;;;;;;5418262;26;20230;-80
2024/04/25 05:05:40;;;;;;;0.20;0.00;;;;;;;;;;5425625;26;20014;-80
2024/04/25 05:08:06;;;;;;;0.20;0.10;;;;;;;;;;5457650;21;20014;-81
2024/04/25 05:10:32;;;;;;;0.20;0.10;;;;;;;;;;5444685;26;20010;-79
2024/04/25 05:12:58;;;;;;;0.20;0.10;;;;;;;;;;5455890;26;20542;-80
2024/04/25 05:15:24;;;;;;;0.20;0.10;;;;;;;;;;5460554;26;20009;-80
2024/04/25 05:17:50;;;;;;;0.20;0.10;;;;;;;;;;5464384;26;20097;-80
2024/04/25 05:20:16;;;;;;;0.20;0.03;;;;;;;;;;5459327;26;20683;-80
2024/04/25 05:22:43;;;;;;;0.20;0.10;;;;;;;;;;5428572;26;20499;-80
2024/04/25 05:25:09;;;;;;;0.20;0.10;;;;;;;;;;5419686;26;20075;-80
2024/04/25 05:27:36;;;;;;;0.20;0.10;;;;;;;;;;5426754;26;20017;-80
2024/04/25 05:30:05;;;;;;;0.20;0.10;;;;;;;;;;5428204;26;20007;-81
2024/04/25 05:32:34;;;;;;;0.20;0.00;;;;;;;;;;5433636;26;19995;-80
2024/04/25 05:35:02;;;;;;;0.20;0.10;;;;;;;;;;5428660;26;20019;-81
2024/04/25 05:37:28;;;;;;;0.20;0.03;;;;;;;;;;5431565;26;20462;-81
2024/04/25 05:39:54;;;;;;;0.20;0.10;;;;;;;;;;5433110;26;19999;-81
2024/04/25 05:42:21;;;;;;;0.20;0.10;;;;;;;;;;5428639;26;20017;-79
2024/04/25 05:44:49;;;;;;;0.20;0.08;;;;;;;;;;5430603;26;20102;-79
2024/04/25 05:47:17;;;;;;;0.20;0.10;;;;;;;;;;5433614;26;20000;-80
2024/04/25 05:49:45;;;;;;;0.20;0.10;;;;;;;;;;5434223;26;20003;-79
2024/04/25 05:52:11;;;;;;;0.20;0.10;;;;;;;;;;5433650;26;20957;-79
2024/04/25 05:54:38;;;;;;;0.20;0.00;;;;;;;;;;5431044;26;20100;-78
2024/04/25 05:57:04;;;;;;;0.20;0.10;;;;;;;;;;5429744;26;20441;-78
2024/04/25 05:59:30;;;;;;;0.20;0.10;;;;;;;;;;5430206;26;19999;-79
2024/04/25 06:01:58;;;;;;;0.20;0.10;;;;;;;;;;5436798;26;19999;-79
2024/04/25 06:04:25;;;;;;;0.20;0.10;;;;;;;;;;5429896;26;20047;-78
2024/04/25 06:06:51;;;;;;;0.20;0.10;;;;;;;;;;5419373;26;20066;-79
2024/04/25 06:09:17;;;;;;;0.20;0.08;;;;;;;;;;5427722;26;20009;-78
2024/04/25 06:11:43;;;;;;;0.20;0.10;;;;;;;;;;5424723;26;20447;-77
2024/04/25 06:14:09;;;;;;;0.20;0.10;;;;;;;;;;5434336;26;20002;-79
2024/04/25 06:16:35;;;;;;;0.20;0.10;;;;;;;;;;5432639;26;20055;-79
2024/04/25 06:19:02;;;;;;;0.20;0.10;;;;;;;;;;5444256;26;20357;-78
2024/04/25 06:21:29;;;;;;;0.20;0.10;;;;;;;;;;5438875;26;20011;-79
2024/04/25 06:23:56;;;;;;;0.20;0.10;;;;;;;;;;5427859;26;20021;-80
2024/04/25 06:26:22;;;;;;;0.20;0.10;;;;;;;;;;5433401;26;20080;-80
2024/04/25 06:28:48;;;;;;;0.20;0.05;;;;;;;;;;5429900;26;19995;-80
2024/04/25 06:31:15;;;;;;;0.52;0.52;;;;;;;;;;5422828;26;20003;-76
2024/04/25 06:33:41;;;;;;;0.20;0.10;;;;;;;;;;5422492;26;20007;-76
2024/04/25 06:36:10;;;;;;;0.20;0.10;;;;;;;;;;5438120;26;20004;-77
2024/04/25 06:38:36;;;;;;;0.20;0.10;;;;;;;;;;5421395;26;20007;-78
2024/04/25 06:41:03;;;;;;;0.20;0.10;;;;;;;;;;5425150;26;20007;-82
2024/04/25 06:43:29;;;;;;;0.20;0.08;;;;;;;;;;5424488;26;20027;-78
2024/04/25 06:45:55;;;;;;;0.20;0.10;;;;;;;;;;5430952;26;20003;-78
2024/04/25 06:48:21;;;;;;;0.20;0.10;;;;;;;;;;5427638;26;20247;-80
2024/04/25 06:50:47;;;;;;;0.20;0.10;;;;;;;;;;5424636;26;20245;-78
2024/04/25 06:53:13;;;;;;;0.20;0.10;;;;;;;;;;5431459;26;20332;-79
2024/04/25 06:55:39;;;;;;;0.20;0.10;;;;;;;;;;5423914;26;20053;-79
2024/04/25 06:58:05;;;;;;;0.20;0.10;;;;;;;;;;5408798;26;20046;-78
2024/04/25 07:00:31;;;;;;;0.20;0.10;;;;;;;;;;5422499;26;19999;-78
2024/04/25 07:02:58;;;;;;;0.20;0.00;;;;;;;;;;5429586;26;20516;-79
2024/04/25 07:05:25;;;;;;;0.20;0.10;;;;;;;;;;5427836;26;20826;-78
2024/04/25 07:07:51;;;;;;;0.20;0.10;;;;;;;;;;5436707;26;19999;-80
2024/04/25 07:10:17;;;;;;;0.20;0.20;;;;;;;;;;5417170;26;20018;-81
2024/04/25 07:12:43;;;;;;;0.20;0.10;;;;;;;;;;5435118;26;20035;-79
2024/04/25 07:15:10;;;;;;;0.20;0.10;;;;;;;;;;5435042;26;20439;-79
2024/04/25 07:17:36;;;;;;;0.20;0.10;;;;;;;;;;5434596;26;19994;-79
2024/04/25 07:20:04;;;;;;;0.20;0.10;;;;;;;;;;5434422;26;20007;-78
2024/04/25 07:22:30;;;;;;;0.20;0.10;;;;;;;;;;5435456;26;20010;-81
2024/04/25 07:24:58;;;;;;;0.20;0.10;;;;;;;;;;5433161;26;20013;-79
2024/04/25 07:27:24;;;;;;;0.20;0.10;;;;;;;;;;5428164;26;20100;-77
2024/04/25 07:29:51;;;;;;;0.20;0.10;;;;;;;;;;5433858;26;20008;-78
2024/04/25 07:32:17;;;;;;;0.20;0.10;;;;;;;;;;5424731;26;19996;-78
2024/04/25 07:34:43;;;;;;;0.20;0.13;;;;;;;;;;5427500;26;20007;-80
2024/04/25 07:37:10;;;;;;;0.20;0.10;;;;;;;;;;5430405;26;19995;-78
2024/04/25 07:39:36;;;;;;;0.20;0.10;;;;;;;;;;5439990;26;20724;-76
2024/04/25 07:42:02;;;;;;;0.20;0.10;;;;;;;;;;5435539;26;20002;-79
2024/04/25 07:44:28;;;;;;;0.20;0.10;;;;;;;;;;5434653;26;20390;-79
2024/04/25 07:46:54;;;;;;;0.20;0.10;;;;;;;;;;5433166;26;20000;-79
2024/04/25 07:49:20;;;;;;;0.20;0.10;;;;;;;;;;5432100;26;20027;-79
2024/04/25 07:51:47;;;;;;;0.20;0.10;;;;;;;;;;5429436;26;20003;-80
2024/04/25 07:54:13;;;;;;;0.20;0.10;;;;;;;;;;5426392;26;20121;-79
2024/04/25 07:56:39;;;;;;;0.20;0.10;;;;;;;;;;5421759;26;20012;-76
2024/04/25 07:59:06;;;;;;;0.20;0.00;;;;;;;;;;5426795;26;20044;-80
2024/04/25 08:01:32;;;;;;;0.20;0.10;;;;;;;;;;5434563;26;20017;-78
2024/04/25 08:03:58;;;;;;;0.20;0.10;;;;;;;;;;5428188;26;20019;-79
2024/04/25 08:06:24;;;;;;;0.20;0.10;;;;;;;;;;5429454;26;20052;-80
2024/04/25 08:08:50;;;;;;;0.20;0.10;;;;;;;;;;5430397;26;20010;-78
2024/04/25 08:11:17;;;;;;;0.20;0.10;;;;;;;;;;5427809;26;20003;-79
2024/04/25 08:13:43;;;;;;;0.20;0.10;;;;;;;;;;5426911;26;19995;-80
2024/04/25 08:16:09;;;;;;;0.20;0.10;;;;;;;;;;5433883;26;20339;-82
2024/04/25 08:18:35;;;;;;;0.20;0.00;;;;;;;;;;5431046;26;19999;-79
2024/04/25 08:21:01;;;;;;;0.20;0.10;;;;;;;;;;5426169;26;20015;-78
2024/04/25 08:23:27;;;;;;;0.20;0.10;;;;;;;;;;5429070;26;20010;-82
2024/04/25 08:25:55;;;;;;;0.20;0.10;;;;;;;;;;5434822;26;20057;-79
2024/04/25 08:28:21;;;;;;;0.20;0.10;;;;;;;;;;5430661;26;20039;-80
2024/04/25 08:30:47;;;;;;;0.20;0.10;;;;;;;;;;5427950;26;20051;-83
2024/04/25 08:33:13;;;;;;;0.20;0.00;;;;;;;;;;5428996;26;20003;-79
2024/04/25 08:35:39;;;;;;;0.20;0.05;;;;;;;;;;5428467;26;20000;-78
2024/04/25 08:38:05;;;;;;;0.20;0.10;;;;;;;;;;5428402;26;20013;-79
2024/04/25 08:40:34;;;;;;;0.20;0.08;;;;;;;;;;5426857;26;20009;-77
2024/04/25 08:43:02;;;;;;;0.20;0.05;;;;;;;;;;5433455;26;20007;-77
2024/04/25 08:45:28;;;;;;;0.20;0.00;;;;;;;;;;5435339;26;20071;-78
2024/04/25 08:47:56;;;;;;;0.20;0.00;;;;;;;;;;5438374;26;19999;-78
2024/04/25 08:50:23;;;;;;;0.20;0.10;;;;;;;;;;5421605;26;20050;-78
2024/04/25 08:52:50;;;;;;;0.20;0.10;;;;;;;;;;5429067;26;20563;-81
2024/04/25 08:55:17;;;;;;;0.20;0.17;;;;;;;;;;5426144;26;20007;-77
2024/04/25 08:57:44;;;;;;;0.20;0.10;;;;;;;;;;5428655;26;20050;-78
2024/04/25 09:00:10;;;;;;;0.20;0.10;;;;;;;;;;5428916;26;19998;-82
2024/04/25 09:02:36;;;;;;;0.20;0.10;;;;;;;;;;5431681;26;20053;-78
2024/04/25 09:05:02;;;;;;;0.20;0.10;;;;;;;;;;5435365;26;20006;-80
2024/04/25 09:07:29;;;;;;;0.20;0.10;;;;;;;;;;5435115;26;20042;-77
2024/04/25 09:09:56;;;;;;;0.20;0.10;;;;;;;;;;5425414;26;20022;-83
2024/04/25 09:12:22;;;;;;;0.20;0.10;;;;;;;;;;5428886;26;20003;-78
2024/04/25 09:14:48;;;;;;;0.35;0.35;;;;;;;;;;5424187;26;20007;-80
2024/04/25 09:17:17;;;;;;;0.20;0.10;;;;;;;;;;5434594;26;20003;-79
2024/04/25 09:19:44;;;;;;;0.20;0.00;;;;;;;;;;5427689;26;20007;-78
2024/04/25 09:22:10;;;;;;;0.20;0.10;;;;;;;;;;5430772;26;20045;-78
2024/04/25 09:24:37;;;;;;;0.20;0.00;;;;;;;;;;5430430;26;19995;-77
2024/04/25 09:27:04;;;;;;;0.20;0.10;;;;;;;;;;5440683;26;20011;-77
2024/04/25 09:29:31;;;;;;;0.20;0.10;;;;;;;;;;5434915;26;20607;-79
2024/04/25 09:31:57;;;;;;;1.95;1.45;;;;;;;;;;5420020;26;20007;-78
2024/04/25 09:34:24;;;;;;;0.20;0.00;;;;;;;;;;5436019;26;20014;-79
2024/04/25 09:36:50;;;;;;;0.20;0.10;;;;;;;;;;5416714;26;20087;-80
2024/04/25 09:39:17;;;;;;;0.20;0.10;;;;;;;;;;5436257;26;20009;-77
2024/04/25 09:41:44;;;;;;;0.20;0.00;;;;;;;;;;5428721;26;20100;-79
2024/04/25 09:44:10;;;;;;;0.20;0.10;;;;;;;;;;5430045;26;19999;-78
2024/04/25 09:46:58;;;;;;;0.20;0.10;;;;;;;;;;5421862;26;20394;-78
2024/04/25 09:49:39;;;;;;;0.20;0.10;;;;;;;;;;5422882;26;20081;-76
2024/04/25 09:52:12;;;;;;;0.52;0.30;;;;;;;;;;5425022;26;19996;-79
2024/04/25 09:54:43;;;;;;;0.20;0.10;;;;;;;;;;5424047;26;20658;-80
2024/04/25 09:57:10;;;;;;;0.20;0.10;;;;;;;;;;5426811;26;19995;-78
2024/04/25 09:59:42;;;;;;;0.20;0.10;;;;;;;;;;5428849;26;20486;-82
2024/04/25 10:02:14;;;;;;;0.20;0.10;;;;;;;;;;5437566;26;20000;-80
2024/04/25 10:04:40;;;;;;;0.20;0.10;;;;;;;;;;5423618;26;20029;-78
2024/04/25 10:07:07;;;;;;;0.20;0.10;;;;;;;;;;5416463;26;20068;-80
2024/04/25 10:09:33;;;;;;;0.30;0.20;;;;;;;;;;5428322;26;20517;-79
2024/04/25 10:11:59;;;;;;;0.20;0.10;;;;;;;;;;5423683;26;20042;-80
2024/04/25 10:14:27;;;;;;;0.20;0.03;;;;;;;;;;5426928;26;20000;-80
2024/04/25 10:16:53;;;;;;;0.20;0.08;;;;;;;;;;5436369;26;20062;-83
2024/04/25 10:19:19;;;;;;;0.20;0.10;;;;;;;;;;5420585;26;20002;-81
2024/04/25 10:21:49;;;;;;;0.20;0.10;;;;;;;;;;5434226;26;20007;-82
2024/04/25 10:24:15;;;;;;;0.20;0.10;;;;;;;;;;5423300;26;20432;-79
2024/04/25 10:26:47;;;;;;;0.20;0.10;;;;;;;;;;5420834;26;20569;-81
2024/04/25 10:29:15;;;;;;;0.35;0.20;;;;;;;;;;5401516;26;20358;-80
2024/04/25 10:31:42;;;;;;;0.20;0.10;;;;;;;;;;5436741;26;20014;-80
2024/04/25 10:34:09;;;;;;;0.20;0.10;;;;;;;;;;5418177;26;20021;-79
2024/04/25 10:36:35;;;;;;;0.20;0.10;;;;;;;;;;5432894;26;20303;-80
2024/04/25 10:39:01;;;;;;;0.20;0.10;;;;;;;;;;5416975;26;20013;-80
2024/04/25 10:41:35;;;;;;;0.20;0.00;;;;;;;;;;5426331;26;20016;-80
2024/04/25 10:44:02;;;;;;;0.20;0.10;;;;;;;;;;5423242;26;20026;-79
2024/04/25 10:46:28;;;;;;;0.20;0.10;;;;;;;;;;5423886;26;19996;-79
2024/04/25 10:48:54;;;;;;;0.20;0.15;;;;;;;;;;5430999;26;20000;-81
2024/04/25 10:51:20;;;;;;;0.20;0.10;;;;;;;;;;5432699;26;19999;-79
2024/04/25 10:53:48;;;;;;;0.20;0.00;;;;;;;;;;5420277;26;20479;-80
2024/04/25 10:56:16;;;;;;;0.20;0.10;;;;;;;;;;5427378;26;20019;-78
2024/04/25 10:58:49;;;;;;;0.20;0.10;;;;;;;;;;5438035;26;20014;-79
2024/04/25 11:01:25;;;;;;;0.20;0.00;;;;;;;;;;5428437;26;20527;-78
2024/04/25 11:03:54;;;;;;;0.20;0.10;;;;;;;;;;5427393;26;19995;-78
2024/04/25 11:06:21;;;;;;;0.20;0.10;;;;;;;;;;5423976;26;20002;-78
2024/04/25 11:08:47;;;;;;;0.20;0.10;;;;;;;;;;5462506;21;20044;-81
2024/04/25 11:11:14;;;;;;;0.20;0.10;;;;;;;;;;5471672;26;20050;-79
2024/04/25 11:13:40;;;;;;;0.40;0.20;;;;;;;;;;5473141;26;20073;-79
2024/04/25 11:16:06;;;;;;;0.20;0.10;;;;;;;;;;5474672;26;20002;-79
2024/04/25 11:18:33;;;;;;;0.20;0.10;;;;;;;;;;5468124;26;20009;-79
2024/04/25 11:21:01;;;;;;;0.20;0.10;;;;;;;;;;5475734;26;20013;-80
2024/04/25 11:23:27;;;;;;;0.20;0.10;;;;;;;;;;5478313;26;20441;-80
2024/04/25 11:25:53;;;;;;;0.20;0.00;;;;;;;;;;5501926;26;20018;-78
2024/04/25 11:28:19;;;;;;;0.20;0.10;;;;;;;;;;5485250;26;20919;-79
2024/04/25 11:30:47;;;;;;;0.20;0.10;;;;;;;;;;5506971;26;20009;-82
2024/04/25 11:33:13;;;;;;;0.20;0.10;;;;;;;;;;5483015;26;19998;-80
2024/04/25 11:35:44;;;;;;;0.40;0.20;;;;;;;;;;5478706;26;20465;-80
2024/04/25 11:38:11;;;;;;;0.20;0.10;;;;;;;;;;5497111;26;20586;-83
2024/04/25 11:40:39;;;;;;;0.20;0.10;;;;;;;;;;5469056;26;20834;-81
2024/04/25 11:43:06;;;;;;;0.20;0.20;;;;;;;;;;5512565;26;20016;-80
2024/04/25 11:45:33;;;;;;;0.20;0.00;;;;;;;;;;5507972;26;19994;-80
2024/04/25 11:47:59;;;;;;;0.20;0.10;;;;;;;;;;5484102;26;20477;-80
2024/04/25 11:50:25;;;;;;;0.20;0.10;;;;;;;;;;5513768;26;20009;-78
2024/04/25 11:52:51;;;;;;;0.50;0.20;;;;;;;;;;5507903;26;20478;-81
2024/04/25 11:55:18;;;;;;;0.20;0.08;;;;;;;;;;5512263;26;20012;-81
2024/04/25 11:57:44;;;;;;;0.20;0.10;;;;;;;;;;5477841;26;19994;-82
2024/04/25 12:00:10;;;;;;;0.20;0.10;;;;;;;;;;5481027;26;20107;-80
2024/04/25 12:02:36;;;;;;;0.20;0.10;;;;;;;;;;5505762;26;20304;-76
2024/04/25 12:05:05;;;;;;;0.20;0.10;;;;;;;;;;5504748;26;19993;-81
2024/04/25 12:07:31;;;;;;;0.20;0.20;;;;;;;;;;5506612;26;19997;-79
2024/04/25 12:09:57;;;;;;;0.20;0.10;;;;;;;;;;5502426;26;20016;-78
2024/04/25 12:12:23;;;;;;;0.20;0.10;;;;;;;;;;5502481;26;20073;-78
2024/04/25 12:14:49;;;;;;;0.20;0.10;;;;;;;;;;5505815;26;20017;-80
2024/04/25 12:17:15;;;;;;;0.20;0.10;;;;;;;;;;5507393;26;19998;-80
2024/04/25 12:19:41;;;;;;;0.20;0.10;;;;;;;;;;5514093;26;20405;-81
2024/04/25 12:22:07;;;;;;;0.20;0.17;;;;;;;;;;5499942;26;20051;-80
2024/04/25 12:24:33;;;;;;;0.20;0.00;;;;;;;;;;5476116;26;20075;-80
2024/04/25 12:27:00;;;;;;;0.20;0.10;;;;;;;;;;5475229;26;20006;-81
2024/04/25 12:29:26;;;;;;;0.20;0.10;;;;;;;;;;5502797;26;20074;-81
2024/04/25 12:31:53;;;;;;;0.20;0.10;;;;;;;;;;5503606;26;20006;-81
2024/04/25 12:34:19;;;;;;;0.20;0.10;;;;;;;;;;5477227;26;20645;-80
2024/04/25 12:36:45;;;;;;;0.20;0.10;;;;;;;;;;5472877;26;20001;-82
2024/04/25 12:39:11;;;;;;;0.45;0.32;;;;;;;;;;5507260;25;20004;-80
2024/04/25 12:41:38;;;;;;;0.20;0.10;;;;;;;;;;5472896;26;19994;-79
2024/04/25 12:44:06;;;;;;;0.20;0.00;;;;;;;;;;5472911;26;20001;-79
2024/04/25 12:46:32;;;;;;;0.20;0.10;;;;;;;;;;5470477;26;20418;-80
2024/04/25 12:48:58;;;;;;;0.20;0.10;;;;;;;;;;5511645;26;20070;-81
2024/04/25 12:51:24;;;;;;;0.20;0.10;;;;;;;;;;5507603;26;20067;-78
2024/04/25 12:53:50;;;;;;;0.65;0.65;;;;;;;;;;5477995;26;20077;-80
2024/04/25 12:56:18;;;;;;;0.20;0.10;;;;;;;;;;5480729;26;19994;-81
2024/04/25 12:58:44;;;;;;;0.20;0.10;;;;;;;;;;5506493;26;20073;-82
2024/04/25 13:01:10;;;;;;;0.20;0.10;;;;;;;;;;5503728;26;20016;-81
2024/04/25 13:03:36;;;;;;;0.20;0.00;;;;;;;;;;5470701;26;20002;-80
2024/04/25 13:06:02;;;;;;;0.20;0.10;;;;;;;;;;5505428;26;20026;-80
2024/04/25 13:08:28;;;;;;;0.20;0.10;;;;;;;;;;5513267;26;20039;-81
2024/04/25 13:10:54;;;;;;;0.20;0.10;;;;;;;;;;5508859;26;20010;-79
2024/04/25 13:13:21;;;;;;;0.20;0.00;;;;;;;;;;5504005;26;20001;-83
2024/04/25 13:15:48;;;;;;;0.20;0.00;;;;;;;;;;5504805;26;20008;-81
2024/04/25 13:18:18;;;;;;;0.20;0.03;;;;;;;;;;5509179;26;20014;-82
2024/04/25 13:20:48;;;;;;;0.20;0.10;;;;;;;;;;5502069;26;20043;-80
2024/04/25 13:23:14;;;;;;;0.20;0.10;;;;;;;;;;5508701;26;20449;-81
2024/04/25 13:25:40;;;;;;;0.20;0.10;;;;;;;;;;5507640;26;19997;-81
2024/04/25 13:28:06;;;;;;;0.20;0.10;;;;;;;;;;5509453;26;20002;-80
2024/04/25 13:30:33;;;;;;;0.20;0.10;;;;;;;;;;5514256;26;20070;-77
2024/04/25 13:33:00;;;;;;;0.20;0.10;;;;;;;;;;5509707;26;20041;-78
2024/04/25 13:35:26;;;;;;;0.20;0.10;;;;;;;;;;5483050;26;20001;-82
2024/04/25 13:37:53;;;;;;;0.20;0.10;;;;;;;;;;5513929;26;20017;-81
2024/04/25 13:40:19;;;;;;;0.20;0.15;;;;;;;;;;5503804;26;20065;-80
2024/04/25 13:42:46;;;;;;;0.20;0.10;;;;;;;;;;5510714;26;20371;-79
2024/04/25 13:45:13;;;;;;;0.20;0.10;;;;;;;;;;5511137;26;20001;-80
2024/04/25 13:47:39;;;;;;;0.20;0.10;;;;;;;;;;5452474;26;20013;-82
2024/04/25 13:50:05;;;;;;;4.38;0.45;;;;;;;;;;5506973;26;20073;-78
2024/04/25 13:52:31;;;;;;;0.20;0.10;;;;;;;;;;5508949;26;20013;-78
2024/04/25 13:54:57;;;;;;;0.20;0.10;;;;;;;;;;5509157;26;20005;-78
2024/04/25 13:57:24;;;;;;;0.25;0.15;;;;;;;;;;5490172;26;20353;-79
2024/04/25 13:59:50;;;;;;;0.20;0.10;;;;;;;;;;5510609;26;19998;-76
2024/04/25 14:02:16;;;;;;;0.20;0.10;;;;;;;;;;5511205;26;20514;-78
2024/04/25 14:04:43;;;;;;;0.20;0.10;;;;;;;;;;5515363;26;20507;-80
2024/04/25 14:07:09;;;;;;;0.20;0.10;;;;;;;;;;5515714;26;20004;-78
2024/04/25 14:09:39;;;;;;;0.20;0.00;;;;;;;;;;5510044;26;20525;-80
2024/04/25 14:12:05;;;;;;;0.20;0.10;;;;;;;;;;5515085;26;19998;-79
2024/04/25 14:14:31;;;;;;;0.73;0.20;;;;;;;;;;5473995;26;20042;-79
2024/04/25 14:16:57;;;;;;;0.20;0.10;;;;;;;;;;5517749;26;20081;-79
2024/04/25 14:19:25;;;;;;;0.20;0.00;;;;;;;;;;5511288;26;20002;-80
2024/04/25 14:21:51;;;;;;;0.20;0.10;;;;;;;;;;5516283;26;19998;-81
2024/04/25 14:24:19;;;;;;;0.20;0.00;;;;;;;;;;5513917;26;20016;-79
2024/04/25 14:29:31;;;;;;;0.20;0.10;;;;;;;;;;5517537;26;20062;-81
2024/04/25 14:31:57;;;;;;;0.20;0.10;;;;;;;;;;5486795;26;20008;-81
2024/04/25 14:34:25;;;;;;;0.20;0.10;;;;;;;;;;5517047;26;20438;-81
2024/04/25 14:36:51;;;;;;;0.20;0.10;;;;;;;;;;5478975;26;20013;-80
2024/04/25 14:39:17;;;;;;;0.20;0.00;;;;;;;;;;5475785;26;20010;-81
2024/04/25 14:41:43;;;;;;;0.20;0.10;;;;;;;;;;5482857;26;20008;-80
2024/04/25 14:44:09;;;;;;;0.20;0.10;;;;;;;;;;5507080;26;20018;-80
2024/04/25 14:46:35;;;;;;;0.20;0.03;;;;;;;;;;5510480;26;20419;-79
2024/04/25 14:49:02;;;;;;;0.20;0.10;;;;;;;;;;5501887;26;20001;-79
2024/04/25 14:51:28;;;;;;;0.20;0.10;;;;;;;;;;5506538;26;20005;-78